createdAt,value
2023-04-18T00:00:21.640Z,7.61
2023-04-18T00:01:21.600Z,7.60
2023-04-18T00:02:21.645Z,7.61
2023-04-18T00:03:21.848Z,7.60
2023-04-18T00:04:22.083Z,7.60
2023-04-18T00:05:21.640Z,7.58
2023-04-18T00:06:21.576Z,7.60
2023-04-18T00:07:21.512Z,7.60
2023-04-18T00:08:21.516Z,7.61
2023-04-18T00:09:21.501Z,7.60
2023-04-18T00:10:21.464Z,7.64
2023-04-18T00:11:21.545Z,7.68
2023-04-18T00:12:21.786Z,7.68
2023-04-18T00:13:21.574Z,7.69
2023-04-18T00:14:21.439Z,7.69
2023-04-18T00:15:21.405Z,7.72
2023-04-18T00:16:21.433Z,7.71
2023-04-18T00:17:21.396Z,7.75
2023-04-18T00:18:21.366Z,7.74
2023-04-18T00:19:21.390Z,7.77
2023-04-18T00:20:21.438Z,7.77
2023-04-18T00:21:21.347Z,7.80
2023-04-18T00:22:21.363Z,7.77
2023-04-18T00:23:21.364Z,7.79
2023-04-18T00:24:21.307Z,7.80
2023-04-18T00:25:21.300Z,7.77
2023-04-18T00:26:21.287Z,7.79
2023-04-18T00:27:21.269Z,7.79
2023-04-18T00:28:21.278Z,7.83
2023-04-18T00:29:21.455Z,7.86
2023-04-18T00:30:21.230Z,7.85
2023-04-18T00:31:21.323Z,7.85
2023-04-18T00:32:21.273Z,7.85
2023-04-18T00:33:21.216Z,7.86
2023-04-18T00:34:21.194Z,7.87
2023-04-18T00:35:21.201Z,7.86
2023-04-18T00:36:21.200Z,7.87
2023-04-18T00:37:21.178Z,7.89
2023-04-18T00:38:21.164Z,7.87
2023-04-18T00:39:21.145Z,7.86
2023-04-18T00:40:21.139Z,7.86
2023-04-18T00:41:21.126Z,7.87
2023-04-18T00:42:21.101Z,7.89
2023-04-18T00:43:21.111Z,7.87
2023-04-18T00:44:21.071Z,7.92
2023-04-18T00:45:21.089Z,7.90
2023-04-18T00:46:21.094Z,7.89
2023-04-18T00:47:21.101Z,7.95
2023-04-18T00:48:21.046Z,7.92
2023-04-18T00:49:21.028Z,7.92
2023-04-18T00:50:21.038Z,7.90
2023-04-18T00:51:21.035Z,7.92
2023-04-18T00:52:21.024Z,7.93
2023-04-18T00:53:20.985Z,7.95
2023-04-18T00:54:21.010Z,7.95
2023-04-18T00:55:20.986Z,7.95
2023-04-18T00:56:20.980Z,7.95
2023-04-18T00:57:20.954Z,7.95
2023-04-18T00:58:20.961Z,7.93
2023-04-18T00:59:20.922Z,7.93
2023-04-18T01:00:21.180Z,7.93
2023-04-18T01:01:20.920Z,7.95
2023-04-18T01:02:21.133Z,7.93
2023-04-18T01:03:20.974Z,7.95
2023-04-18T01:04:20.966Z,7.92
2023-04-18T01:05:20.891Z,7.93
2023-04-18T01:06:20.869Z,7.93
2023-04-18T01:07:20.842Z,7.92
2023-04-18T01:08:20.815Z,7.92
2023-04-18T01:09:32.648Z,7.92
2023-04-18T01:10:22.574Z,7.93
2023-04-18T01:11:20.830Z,7.93
2023-04-18T01:12:20.797Z,7.93
2023-04-18T01:13:20.773Z,7.92
2023-04-18T01:14:20.799Z,7.93
2023-04-18T01:15:20.767Z,7.92
2023-04-18T01:16:20.862Z,7.90
2023-04-18T01:17:20.798Z,7.89
2023-04-18T01:18:20.759Z,7.92
2023-04-18T01:19:20.726Z,7.89
2023-04-18T01:20:20.715Z,7.89
2023-04-18T01:21:20.691Z,7.89
2023-04-18T01:22:30.733Z,7.87
2023-04-18T01:23:20.666Z,7.86
2023-04-18T01:24:20.646Z,7.87
2023-04-18T01:25:30.664Z,7.85
2023-04-18T01:26:20.635Z,7.85
2023-04-18T01:27:20.623Z,7.85
2023-04-18T01:28:20.639Z,7.86
2023-04-18T01:29:20.635Z,7.85
2023-04-18T01:30:20.601Z,7.85
2023-04-18T01:31:20.951Z,7.82
2023-04-18T01:32:20.792Z,7.82
2023-04-18T01:33:20.596Z,7.80
2023-04-18T01:34:20.577Z,7.83
2023-04-18T01:35:20.548Z,7.80
2023-04-18T01:36:20.559Z,7.79
2023-04-18T01:37:20.540Z,7.80
2023-04-18T01:38:20.548Z,7.80
2023-04-18T01:39:20.506Z,7.75
2023-04-18T01:40:20.507Z,7.77
2023-04-18T01:41:20.479Z,7.79
2023-04-18T01:42:20.481Z,7.74
2023-04-18T01:43:20.461Z,7.77
2023-04-18T01:44:20.474Z,7.74
2023-04-18T01:45:20.464Z,7.74
2023-04-18T01:46:20.454Z,7.74
2023-04-18T01:47:20.428Z,7.72
2023-04-18T01:48:20.426Z,7.69
2023-04-18T01:49:20.395Z,7.68
2023-04-18T01:50:20.409Z,7.67
2023-04-18T01:51:20.404Z,7.67
2023-04-18T01:52:20.375Z,7.64
2023-04-18T01:53:20.336Z,7.61
2023-04-18T01:54:20.373Z,7.61
2023-04-18T01:55:20.325Z,7.61
2023-04-18T01:56:20.363Z,7.60
2023-04-18T01:57:20.333Z,7.60
2023-04-18T01:58:20.324Z,7.58
2023-04-18T01:59:20.334Z,7.57
2023-04-18T02:00:20.278Z,7.58
2023-04-18T02:01:20.443Z,7.55
2023-04-18T02:02:20.526Z,7.57
2023-04-18T02:03:20.489Z,7.55
2023-04-18T02:04:21.193Z,7.50
2023-04-18T02:05:20.252Z,7.50
2023-04-18T02:06:20.232Z,7.50
2023-04-18T02:07:20.209Z,7.48
2023-04-18T02:08:20.202Z,7.48
2023-04-18T02:09:20.200Z,7.46
2023-04-18T02:10:20.212Z,7.46
2023-04-18T02:11:20.174Z,7.43
2023-04-18T02:12:20.160Z,7.42
2023-04-18T02:13:20.146Z,7.43
2023-04-18T02:14:20.163Z,7.43
2023-04-18T02:15:20.121Z,7.42
2023-04-18T02:16:20.923Z,7.43
2023-04-18T02:17:20.140Z,7.40
2023-04-18T02:18:20.118Z,7.37
2023-04-18T02:19:20.088Z,7.40
2023-04-18T02:20:20.085Z,7.40
2023-04-18T02:21:20.084Z,7.37
2023-04-18T02:22:20.077Z,7.35
2023-04-18T02:23:20.033Z,7.37
2023-04-18T02:24:20.069Z,7.35
2023-04-18T02:25:20.024Z,7.34
2023-04-18T02:26:20.019Z,7.32
2023-04-18T02:27:19.997Z,7.32
2023-04-18T02:28:19.995Z,7.31
2023-04-18T02:29:19.988Z,7.30
2023-04-18T02:30:19.966Z,7.30
2023-04-18T02:31:19.981Z,7.30
2023-04-18T02:32:20.011Z,7.31
2023-04-18T02:33:19.991Z,7.28
2023-04-18T02:34:19.932Z,7.27
2023-04-18T02:35:19.900Z,7.28
2023-04-18T02:36:19.917Z,7.28
2023-04-18T02:37:19.900Z,7.25
2023-04-18T02:38:19.892Z,7.25
2023-04-18T02:39:19.871Z,7.25
2023-04-18T02:40:19.893Z,7.23
2023-04-18T02:41:19.859Z,7.25
2023-04-18T02:42:19.871Z,7.23
2023-04-18T02:43:19.827Z,7.23
2023-04-18T02:44:19.836Z,7.23
2023-04-18T02:45:19.804Z,7.23
2023-04-18T02:46:19.818Z,7.23
2023-04-18T02:47:19.795Z,7.23
2023-04-18T02:48:19.852Z,7.23
2023-04-18T02:49:19.767Z,7.23
2023-04-18T02:50:19.778Z,7.21
2023-04-18T02:51:19.742Z,7.21
2023-04-18T02:52:19.762Z,7.20
2023-04-18T02:53:19.712Z,7.17
2023-04-18T02:54:19.715Z,7.20
2023-04-18T02:55:19.694Z,7.20
2023-04-18T02:56:19.709Z,7.21
2023-04-18T02:57:19.692Z,7.20
2023-04-18T02:58:19.691Z,7.20
2023-04-18T02:59:19.665Z,7.17
2023-04-18T03:00:19.678Z,7.16
2023-04-18T03:01:19.684Z,7.16
2023-04-18T03:02:19.681Z,7.12
2023-04-18T03:03:19.870Z,7.13
2023-04-18T03:04:19.698Z,7.12
2023-04-18T03:05:19.647Z,7.12
2023-04-18T03:06:19.603Z,7.13
2023-04-18T03:07:19.590Z,7.12
2023-04-18T03:08:19.587Z,7.13
2023-04-18T03:09:19.571Z,7.13
2023-04-18T03:10:19.591Z,7.13
2023-04-18T03:11:19.524Z,7.12
2023-04-18T03:12:19.546Z,7.13
2023-04-18T03:13:19.490Z,7.10
2023-04-18T03:14:19.509Z,7.10
2023-04-18T03:15:19.493Z,7.10
2023-04-18T03:16:19.515Z,7.10
2023-04-18T03:17:19.477Z,7.09
2023-04-18T03:18:19.476Z,7.06
2023-04-18T03:19:19.436Z,7.07
2023-04-18T03:20:19.466Z,7.07
2023-04-18T03:21:19.428Z,7.07
2023-04-18T03:22:19.461Z,7.07
2023-04-18T03:23:19.399Z,7.07
2023-04-18T03:24:19.416Z,7.07
2023-04-18T03:25:19.372Z,7.06
2023-04-18T03:26:19.384Z,7.06
2023-04-18T03:27:19.385Z,7.06
2023-04-18T03:28:19.366Z,7.06
2023-04-18T03:29:19.338Z,7.05
2023-04-18T03:30:19.354Z,7.05
2023-04-18T03:31:19.389Z,7.06
2023-04-18T03:32:19.386Z,7.05
2023-04-18T03:33:19.317Z,7.05
2023-04-18T03:34:19.364Z,7.02
2023-04-18T03:35:19.290Z,7.05
2023-04-18T03:36:19.284Z,7.02
2023-04-18T03:37:19.248Z,7.03
2023-04-18T03:38:19.272Z,7.02
2023-04-18T03:39:19.235Z,7.02
2023-04-18T03:40:19.251Z,7.03
2023-04-18T03:41:19.211Z,6.99
2023-04-18T03:42:19.222Z,7.02
2023-04-18T03:43:19.202Z,7.03
2023-04-18T03:44:19.185Z,7.02
2023-04-18T03:45:19.184Z,6.99
2023-04-18T03:46:19.230Z,6.98
2023-04-18T03:47:19.174Z,6.98
2023-04-18T03:48:19.808Z,6.98
2023-04-18T03:49:19.108Z,6.99
2023-04-18T03:50:19.169Z,6.98
2023-04-18T03:51:19.129Z,6.98
2023-04-18T03:52:19.082Z,6.95
2023-04-18T03:53:19.079Z,6.95
2023-04-18T03:54:19.107Z,6.95
2023-04-18T03:55:19.092Z,6.95
2023-04-18T03:56:19.070Z,6.91
2023-04-18T03:57:19.074Z,6.89
2023-04-18T03:58:19.043Z,6.87
2023-04-18T03:59:19.049Z,6.87
2023-04-18T04:00:19.081Z,6.84
2023-04-18T04:01:18.989Z,6.85
2023-04-18T04:02:19.257Z,6.81
2023-04-18T04:03:19.073Z,6.80
2023-04-18T04:04:19.186Z,6.79
2023-04-18T04:05:19.077Z,6.80
2023-04-18T04:06:18.974Z,6.77
2023-04-18T04:07:18.928Z,6.77
2023-04-18T04:08:18.949Z,6.74
2023-04-18T04:09:18.934Z,6.76
2023-04-18T04:10:18.943Z,6.77
2023-04-18T04:11:18.890Z,6.76
2023-04-18T04:12:18.906Z,6.73
2023-04-18T04:13:18.876Z,6.71
2023-04-18T04:14:18.870Z,6.74
2023-04-18T04:15:18.967Z,6.73
2023-04-18T04:16:18.954Z,6.71
2023-04-18T04:17:18.831Z,6.73
2023-04-18T04:18:18.837Z,6.71
2023-04-18T04:19:18.826Z,6.71
2023-04-18T04:20:18.807Z,6.70
2023-04-18T04:21:21.046Z,6.70
2023-04-18T04:22:18.786Z,6.69
2023-04-18T04:23:18.776Z,6.67
2023-04-18T04:24:18.793Z,6.64
2023-04-18T04:25:18.746Z,6.66
2023-04-18T04:26:18.747Z,6.62
2023-04-18T04:27:18.801Z,6.62
2023-04-18T04:28:18.740Z,6.62
2023-04-18T04:29:18.699Z,6.59
2023-04-18T04:30:18.684Z,6.59
2023-04-18T04:31:18.762Z,6.61
2023-04-18T04:32:18.700Z,6.62
2023-04-18T04:33:18.661Z,6.62
2023-04-18T04:34:18.664Z,6.62
2023-04-18T04:35:18.628Z,6.59
2023-04-18T04:36:19.138Z,6.58
2023-04-18T04:37:18.608Z,6.61
2023-04-18T04:38:18.631Z,6.59
2023-04-18T04:39:18.616Z,6.59
2023-04-18T04:40:18.619Z,6.58
2023-04-18T04:41:18.578Z,6.59
2023-04-18T04:42:18.563Z,6.61
2023-04-18T04:43:18.539Z,6.62
2023-04-18T04:44:18.564Z,6.62
2023-04-18T04:45:18.538Z,6.61
2023-04-18T04:46:18.654Z,6.64
2023-04-18T04:47:18.526Z,6.62
2023-04-18T04:48:18.500Z,6.59
2023-04-18T04:49:18.458Z,6.61
2023-04-18T04:50:18.502Z,6.58
2023-04-18T04:51:18.480Z,6.61
2023-04-18T04:52:18.478Z,6.61
2023-04-18T04:53:18.475Z,6.59
2023-04-18T04:54:18.483Z,6.59
2023-04-18T04:55:18.491Z,6.61
2023-04-18T04:56:18.411Z,6.61
2023-04-18T04:57:18.421Z,6.62
2023-04-18T04:58:18.378Z,6.61
2023-04-18T04:59:18.402Z,6.59
2023-04-18T05:00:18.389Z,6.59
2023-04-18T05:01:18.427Z,6.59
2023-04-18T05:02:18.372Z,6.59
2023-04-18T05:03:18.539Z,6.61
2023-04-18T05:04:18.727Z,6.61
2023-04-18T05:05:18.310Z,6.61
2023-04-18T05:06:18.295Z,6.61
2023-04-18T05:07:18.460Z,6.61
2023-04-18T05:08:18.344Z,6.62
2023-04-18T05:09:18.284Z,6.64
2023-04-18T05:10:18.259Z,6.66
2023-04-18T05:11:18.256Z,6.66
2023-04-18T05:12:18.241Z,6.67
2023-04-18T05:13:18.246Z,6.67
2023-04-18T05:14:18.220Z,6.67
2023-04-18T05:15:18.200Z,6.69
2023-04-18T05:16:18.211Z,6.69
2023-04-18T05:17:18.189Z,6.67
2023-04-18T05:18:18.160Z,6.69
2023-04-18T05:19:18.194Z,6.67
2023-04-18T05:20:18.163Z,6.62
2023-04-18T05:21:18.178Z,6.64
2023-04-18T05:22:18.124Z,6.62
2023-04-18T05:23:18.153Z,6.64
2023-04-18T05:24:18.142Z,6.64
2023-04-18T05:25:18.106Z,6.66
2023-04-18T05:26:18.160Z,6.64
2023-04-18T05:27:18.292Z,6.66
2023-04-18T05:28:18.066Z,6.66
2023-04-18T05:29:18.071Z,6.66
2023-04-18T05:30:18.048Z,6.64
2023-04-18T05:31:18.075Z,6.62
2023-04-18T05:32:18.018Z,6.64
2023-04-18T05:33:18.035Z,6.64
2023-04-18T05:34:17.994Z,6.61
2023-04-18T05:35:18.002Z,6.61
2023-04-18T05:36:17.983Z,6.64
2023-04-18T05:37:18.003Z,6.62
2023-04-18T05:38:18.003Z,6.66
2023-04-18T05:39:17.936Z,6.64
2023-04-18T05:40:17.922Z,6.64
2023-04-18T05:41:17.936Z,6.64
2023-04-18T05:42:17.917Z,6.64
2023-04-18T05:43:17.927Z,6.64
2023-04-18T05:44:18.363Z,6.66
2023-04-18T05:45:17.887Z,6.64
2023-04-18T05:46:17.943Z,6.67
2023-04-18T05:47:17.866Z,6.66
2023-04-18T05:48:17.854Z,6.66
2023-04-18T05:49:17.865Z,6.62
2023-04-18T05:50:17.838Z,6.62
2023-04-18T05:51:17.854Z,6.64
2023-04-18T05:52:17.820Z,6.69
2023-04-18T05:53:17.818Z,6.71
2023-04-18T05:54:17.825Z,6.74
2023-04-18T05:55:17.797Z,6.76
2023-04-18T05:56:17.784Z,6.77
2023-04-18T05:57:17.766Z,6.79
2023-04-18T05:58:17.747Z,6.81
2023-04-18T05:59:17.783Z,6.81
2023-04-18T06:00:17.774Z,6.85
2023-04-18T06:01:17.749Z,6.87
2023-04-18T06:02:17.768Z,6.85
2023-04-18T06:03:17.946Z,6.88
2023-04-18T06:04:18.019Z,6.88
2023-04-18T06:05:18.125Z,6.91
2023-04-18T06:06:17.653Z,6.92
2023-04-18T06:07:17.680Z,6.92
2023-04-18T06:08:17.636Z,6.89
2023-04-18T06:09:17.713Z,6.88
2023-04-18T06:10:17.652Z,6.88
2023-04-18T06:11:17.621Z,6.85
2023-04-18T06:12:17.619Z,6.87
2023-04-18T06:13:17.592Z,6.85
2023-04-18T06:14:17.567Z,6.88
2023-04-18T06:15:17.599Z,6.88
2023-04-18T06:16:17.702Z,6.91
2023-04-18T06:17:17.560Z,6.91
2023-04-18T06:18:17.537Z,6.94
2023-04-18T06:19:17.562Z,6.98
2023-04-18T06:20:17.537Z,6.99
2023-04-18T06:21:17.504Z,7.05
2023-04-18T06:22:17.497Z,7.05
2023-04-18T06:23:17.517Z,7.06
2023-04-18T06:24:17.485Z,7.03
2023-04-18T06:25:17.929Z,6.99
2023-04-18T06:26:17.459Z,6.97
2023-04-18T06:27:28.310Z,6.95
2023-04-18T06:28:18.432Z,6.92
2023-04-18T06:29:17.532Z,6.95
2023-04-18T06:30:17.411Z,6.95
2023-04-18T06:31:17.467Z,6.92
2023-04-18T06:32:17.406Z,6.94
2023-04-18T06:33:17.399Z,6.94
2023-04-18T06:34:17.359Z,6.94
2023-04-18T06:35:17.374Z,6.97
2023-04-18T06:36:17.337Z,6.97
2023-04-18T06:37:17.363Z,6.97
2023-04-18T06:38:17.340Z,6.99
2023-04-18T06:39:17.336Z,7.06
2023-04-18T06:40:17.938Z,7.10
2023-04-18T06:41:17.314Z,7.10
2023-04-18T06:42:17.286Z,7.12
2023-04-18T06:43:17.295Z,7.16
2023-04-18T06:44:17.273Z,7.20
2023-04-18T06:45:17.279Z,7.25
2023-04-18T06:46:17.267Z,7.24
2023-04-18T06:47:17.232Z,7.23
2023-04-18T06:48:17.214Z,7.27
2023-04-18T06:49:17.222Z,7.27
2023-04-18T06:50:17.192Z,7.34
2023-04-18T06:51:17.192Z,7.39
2023-04-18T06:52:17.174Z,7.43
2023-04-18T06:53:17.185Z,7.45
2023-04-18T06:54:17.152Z,7.42
2023-04-18T06:55:17.156Z,7.45
2023-04-18T06:56:17.129Z,7.50
2023-04-18T06:57:17.123Z,7.58
2023-04-18T06:58:17.151Z,7.63
2023-04-18T06:59:17.114Z,7.64
2023-04-18T07:00:17.121Z,7.67
2023-04-18T07:01:17.166Z,7.64
2023-04-18T07:02:17.123Z,7.69
2023-04-18T07:03:17.183Z,7.72
2023-04-18T07:04:17.427Z,7.75
2023-04-18T07:05:17.046Z,7.75
2023-04-18T07:06:17.031Z,7.79
2023-04-18T07:07:17.040Z,7.79
2023-04-18T07:08:17.001Z,7.80
2023-04-18T07:09:17.017Z,7.82
2023-04-18T07:10:16.968Z,7.83
2023-04-18T07:11:17.040Z,7.85
2023-04-18T07:12:16.946Z,7.86
2023-04-18T07:13:16.971Z,7.95
2023-04-18T07:14:17.094Z,8.05
2023-04-18T07:15:16.930Z,8.04
2023-04-18T07:16:16.993Z,8.02
2023-04-18T07:17:16.947Z,7.98
2023-04-18T07:18:30.279Z,8.00
2023-04-18T07:19:17.896Z,8.01
2023-04-18T07:20:16.906Z,8.04
2023-04-18T07:21:16.906Z,8.12
2023-04-18T07:22:16.870Z,8.18
2023-04-18T07:23:16.866Z,8.29
2023-04-18T07:24:16.979Z,8.40
2023-04-18T07:25:16.848Z,8.40
2023-04-18T07:26:31.556Z,8.43
2023-04-18T07:27:16.815Z,8.45
2023-04-18T07:28:16.801Z,8.45
2023-04-18T07:29:16.805Z,8.37
2023-04-18T07:30:16.781Z,8.37
2023-04-18T07:31:16.897Z,8.38
2023-04-18T07:32:16.759Z,8.38
2023-04-18T07:33:16.796Z,8.34
2023-04-18T07:34:16.765Z,8.26
2023-04-18T07:35:16.743Z,8.22
2023-04-18T07:36:16.720Z,8.20
2023-04-18T07:37:16.739Z,8.22
2023-04-18T07:38:16.686Z,8.10
2023-04-18T07:39:16.724Z,8.05
2023-04-18T07:40:16.700Z,8.07
2023-04-18T07:41:16.671Z,8.07
2023-04-18T07:42:16.850Z,8.11
2023-04-18T07:43:16.670Z,8.10
2023-04-18T07:44:16.652Z,8.11
2023-04-18T07:45:16.592Z,8.10
2023-04-18T07:46:16.676Z,8.12
2023-04-18T07:47:16.618Z,8.19
2023-04-18T07:48:16.603Z,8.26
2023-04-18T07:49:16.751Z,8.25
2023-04-18T07:50:16.670Z,8.29
2023-04-18T07:51:16.614Z,8.33
2023-04-18T07:52:16.567Z,8.33
2023-04-18T07:53:16.536Z,8.34
2023-04-18T07:54:16.515Z,8.36
2023-04-18T07:55:16.573Z,8.38
2023-04-18T07:56:16.494Z,8.44
2023-04-18T07:57:16.506Z,8.52
2023-04-18T07:58:16.537Z,8.59
2023-04-18T07:59:16.755Z,8.63
2023-04-18T08:00:16.465Z,8.59
2023-04-18T08:01:16.458Z,8.56
2023-04-18T08:02:16.531Z,8.55
2023-04-18T08:03:16.666Z,8.59
2023-04-18T08:04:16.639Z,8.68
2023-04-18T08:05:16.550Z,8.81
2023-04-18T08:06:16.420Z,8.87
2023-04-18T08:07:16.401Z,8.84
2023-04-18T08:08:16.375Z,8.80
2023-04-18T08:09:16.547Z,8.81
2023-04-18T08:10:16.392Z,8.80
2023-04-18T08:11:16.326Z,8.80
2023-04-18T08:12:16.324Z,8.76
2023-04-18T08:13:16.389Z,8.79
2023-04-18T08:14:16.376Z,8.79
2023-04-18T08:15:16.340Z,8.76
2023-04-18T08:16:17.521Z,8.68
2023-04-18T08:17:16.271Z,8.66
2023-04-18T08:18:16.299Z,8.68
2023-04-18T08:19:16.476Z,8.68
2023-04-18T08:20:16.223Z,8.65
2023-04-18T08:21:16.229Z,8.65
2023-04-18T08:22:16.220Z,8.61
2023-04-18T08:23:16.248Z,8.62
2023-04-18T08:24:16.197Z,8.62
2023-04-18T08:25:16.222Z,8.58
2023-04-18T08:26:16.196Z,8.55
2023-04-18T08:27:16.211Z,8.53
2023-04-18T08:28:16.156Z,8.50
2023-04-18T08:29:16.227Z,8.47
2023-04-18T08:30:16.205Z,8.43
2023-04-18T08:31:16.218Z,8.48
2023-04-18T08:32:16.122Z,8.56
2023-04-18T08:33:16.146Z,8.63
2023-04-18T08:34:16.114Z,8.70
2023-04-18T08:35:16.142Z,8.70
2023-04-18T08:36:16.113Z,8.73
2023-04-18T08:37:16.053Z,8.74
2023-04-18T08:38:16.039Z,8.76
2023-04-18T08:39:16.233Z,8.80
2023-04-18T08:40:16.041Z,8.84
2023-04-18T08:41:16.023Z,8.91
2023-04-18T08:42:15.995Z,8.98
2023-04-18T08:43:16.020Z,9.05
2023-04-18T08:44:16.184Z,9.11
2023-04-18T08:45:15.994Z,9.17
2023-04-18T08:46:15.984Z,9.26
2023-04-18T08:47:15.995Z,9.36
2023-04-18T08:48:15.929Z,9.48
2023-04-18T08:49:16.223Z,9.51
2023-04-18T08:50:15.905Z,9.51
2023-04-18T08:51:15.925Z,9.50
2023-04-18T08:52:15.936Z,9.56
2023-04-18T08:53:15.892Z,9.57
2023-04-18T08:54:15.853Z,9.69
2023-04-18T08:55:15.931Z,9.90
2023-04-18T08:56:15.950Z,9.99
2023-04-18T08:57:15.877Z,10.08
2023-04-18T08:58:15.846Z,10.17
2023-04-18T08:59:16.077Z,10.30
2023-04-18T09:00:15.884Z,10.47
2023-04-18T09:01:15.888Z,10.67
2023-04-18T09:02:15.840Z,10.70
2023-04-18T09:03:15.851Z,10.74
2023-04-18T09:04:15.842Z,10.78
2023-04-18T09:05:15.784Z,10.84
2023-04-18T09:06:15.739Z,10.92
2023-04-18T09:07:15.769Z,11.03
2023-04-18T09:08:15.737Z,11.09
2023-04-18T09:09:15.877Z,11.33
2023-04-18T09:10:15.693Z,12.37
2023-04-18T09:11:15.706Z,13.17
2023-04-18T09:12:15.700Z,13.52
2023-04-18T09:13:15.682Z,13.78
2023-04-18T09:14:15.689Z,14.57
2023-04-18T09:15:15.699Z,14.47
2023-04-18T09:16:15.697Z,14.10
2023-04-18T09:17:15.628Z,13.75
2023-04-18T09:18:15.616Z,13.26
2023-04-18T09:19:15.760Z,13.00
2023-04-18T09:20:15.655Z,12.78
2023-04-18T09:21:15.573Z,12.97
2023-04-18T09:22:15.589Z,13.20
2023-04-18T09:23:15.567Z,13.29
2023-04-18T09:24:15.570Z,13.69
2023-04-18T09:25:15.549Z,13.59
2023-04-18T09:26:15.554Z,13.26
2023-04-18T09:27:15.570Z,13.29
2023-04-18T09:28:15.501Z,13.14
2023-04-18T09:29:15.626Z,13.12
2023-04-18T09:30:15.496Z,12.97
2023-04-18T09:31:15.644Z,12.83
2023-04-18T09:32:15.482Z,12.62
2023-04-18T09:33:15.448Z,12.29
2023-04-18T09:34:15.628Z,12.23
2023-04-18T09:35:15.448Z,12.07
2023-04-18T09:36:15.483Z,11.90
2023-04-18T09:37:15.476Z,12.07
2023-04-18T09:38:15.418Z,12.29
2023-04-18T09:39:15.630Z,12.46
2023-04-18T09:40:15.363Z,12.53
2023-04-18T09:41:15.409Z,12.60
2023-04-18T09:42:15.380Z,12.74
2023-04-18T09:43:15.346Z,12.65
2023-04-18T09:44:15.815Z,12.49
2023-04-18T09:45:15.311Z,12.53
2023-04-18T09:46:25.283Z,12.54
2023-04-18T09:47:15.281Z,13.07
2023-04-18T09:48:17.051Z,13.01
2023-04-18T09:49:16.189Z,13.23
2023-04-18T09:50:15.268Z,13.17
2023-04-18T09:51:15.249Z,13.28
2023-04-18T09:52:15.257Z,13.62
2023-04-18T09:53:15.227Z,13.96
2023-04-18T09:54:15.455Z,15.32
2023-04-18T09:55:15.191Z,15.28
2023-04-18T09:56:15.224Z,15.41
2023-04-18T09:57:15.173Z,15.80
2023-04-18T09:58:15.180Z,15.65
2023-04-18T09:59:15.393Z,15.25
2023-04-18T10:00:15.260Z,14.42
2023-04-18T10:01:15.168Z,13.92
2023-04-18T10:02:15.183Z,13.69
2023-04-18T10:03:15.231Z,13.77
2023-04-18T10:04:15.458Z,14.27
2023-04-18T10:05:15.106Z,14.10
2023-04-18T10:06:15.114Z,13.97
2023-04-18T10:07:15.066Z,13.75
2023-04-18T10:08:15.076Z,14.02
2023-04-18T10:09:15.395Z,14.32
2023-04-18T10:10:15.077Z,14.00
2023-04-18T10:11:15.032Z,13.91
2023-04-18T10:12:15.026Z,15.09
2023-04-18T10:13:15.010Z,15.62
2023-04-18T10:14:15.290Z,15.50
2023-04-18T10:15:14.990Z,16.01
2023-04-18T10:16:15.047Z,15.19
2023-04-18T10:17:15.022Z,14.78
2023-04-18T10:18:15.034Z,14.62
2023-04-18T10:19:15.149Z,14.65
2023-04-18T10:20:14.942Z,14.37
2023-04-18T10:21:14.898Z,14.00
2023-04-18T10:22:14.917Z,13.77
2023-04-18T10:23:14.901Z,13.95
2023-04-18T10:24:15.139Z,13.89
2023-04-18T10:25:14.872Z,13.69
2023-04-18T10:26:14.885Z,13.55
2023-04-18T10:27:14.845Z,13.59
2023-04-18T10:28:14.879Z,13.52
2023-04-18T10:29:14.984Z,13.57
2023-04-18T10:30:14.833Z,13.70
2023-04-18T10:31:14.820Z,13.69
2023-04-18T10:32:14.800Z,13.71
2023-04-18T10:33:21.942Z,13.73
2023-04-18T10:34:15.787Z,13.70
2023-04-18T10:35:14.836Z,13.39
2023-04-18T10:36:14.804Z,13.14
2023-04-18T10:37:14.738Z,13.29
2023-04-18T10:38:14.744Z,13.26
2023-04-18T10:39:14.711Z,13.22
2023-04-18T10:40:14.728Z,13.10
2023-04-18T10:41:14.694Z,13.12
2023-04-18T10:42:14.707Z,13.15
2023-04-18T10:43:14.687Z,13.14
2023-04-18T10:44:15.125Z,13.07
2023-04-18T10:45:14.668Z,13.01
2023-04-18T10:46:30.364Z,13.03
2023-04-18T10:47:15.874Z,13.12
2023-04-18T10:48:14.646Z,13.22
2023-04-18T10:49:14.951Z,13.20
2023-04-18T10:50:14.617Z,13.29
2023-04-18T10:51:14.598Z,13.23
2023-04-18T10:52:14.600Z,13.17
2023-04-18T10:53:14.585Z,13.07
2023-04-18T10:54:14.735Z,13.05
2023-04-18T10:55:14.575Z,12.97
2023-04-18T10:56:14.553Z,13.01
2023-04-18T10:57:14.511Z,13.04
2023-04-18T10:58:14.533Z,13.03
2023-04-18T10:59:14.524Z,13.25
2023-04-18T11:00:14.621Z,13.46
2023-04-18T11:01:14.576Z,13.77
2023-04-18T11:02:14.552Z,13.81
2023-04-18T11:03:14.629Z,13.89
2023-04-18T11:04:15.090Z,13.81
2023-04-18T11:05:14.435Z,13.49
2023-04-18T11:06:14.447Z,13.41
2023-04-18T11:07:14.438Z,13.22
2023-04-18T11:08:14.440Z,13.04
2023-04-18T11:09:14.476Z,13.10
2023-04-18T11:10:14.442Z,13.14
2023-04-18T11:11:14.574Z,13.25
2023-04-18T11:12:14.383Z,13.25
2023-04-18T11:13:14.378Z,13.25
2023-04-18T11:14:14.661Z,13.26
2023-04-18T11:15:14.578Z,13.32
2023-04-18T11:16:14.391Z,13.49
2023-04-18T11:17:14.318Z,13.49
2023-04-18T11:18:14.386Z,13.46
2023-04-18T11:19:14.305Z,13.44
2023-04-18T11:20:14.349Z,13.42
2023-04-18T11:21:14.295Z,13.38
2023-04-18T11:22:14.288Z,13.08
2023-04-18T11:23:14.268Z,13.01
2023-04-18T11:24:14.460Z,12.93
2023-04-18T11:25:14.235Z,12.97
2023-04-18T11:26:14.243Z,12.92
2023-04-18T11:27:14.218Z,13.07
2023-04-18T11:28:14.218Z,13.36
2023-04-18T11:29:14.207Z,13.89
2023-04-18T11:30:14.220Z,14.27
2023-04-18T11:31:14.180Z,14.45
2023-04-18T11:32:14.202Z,14.60
2023-04-18T11:33:14.195Z,14.78
2023-04-18T11:34:14.328Z,14.72
2023-04-18T11:35:14.153Z,14.70
2023-04-18T11:36:14.127Z,14.54
2023-04-18T11:37:14.101Z,14.40
2023-04-18T11:38:14.119Z,14.40
2023-04-18T11:39:14.096Z,14.17
2023-04-18T11:40:14.106Z,13.91
2023-04-18T11:41:14.078Z,13.71
2023-04-18T11:42:14.056Z,13.52
2023-04-18T11:43:14.031Z,13.46
2023-04-18T11:44:14.181Z,13.49
2023-04-18T11:45:14.015Z,13.60
2023-04-18T11:46:14.048Z,13.66
2023-04-18T11:47:13.997Z,13.73
2023-04-18T11:48:13.994Z,13.79
2023-04-18T11:49:14.560Z,14.02
2023-04-18T11:50:14.006Z,14.55
2023-04-18T11:51:13.970Z,14.86
2023-04-18T11:52:13.956Z,14.94
2023-04-18T11:53:13.932Z,15.09
2023-04-18T11:54:14.113Z,15.29
2023-04-18T11:55:13.903Z,15.29
2023-04-18T11:56:13.929Z,15.29
2023-04-18T11:57:13.891Z,15.10
2023-04-18T11:58:13.898Z,14.99
2023-04-18T11:59:13.892Z,14.65
2023-04-18T12:00:13.906Z,14.33
2023-04-18T12:01:13.904Z,14.37
2023-04-18T12:02:16.691Z,14.39
2023-04-18T12:03:14.103Z,14.15
2023-04-18T12:04:14.244Z,13.99
2023-04-18T12:05:13.977Z,13.95
2023-04-18T12:06:13.852Z,14.03
2023-04-18T12:07:13.797Z,14.15
2023-04-18T12:08:13.794Z,14.17
2023-04-18T12:09:13.896Z,14.03
2023-04-18T12:10:13.767Z,14.07
2023-04-18T12:11:13.737Z,14.21
2023-04-18T12:12:13.736Z,14.54
2023-04-18T12:13:13.716Z,15.07
2023-04-18T12:14:13.945Z,15.38
2023-04-18T12:15:13.704Z,15.72
2023-04-18T12:16:13.796Z,15.89
2023-04-18T12:17:13.664Z,16.15
2023-04-18T12:18:13.711Z,16.24
2023-04-18T12:19:13.830Z,16.02
2023-04-18T12:20:13.750Z,15.68
2023-04-18T12:21:13.624Z,15.51
2023-04-18T12:22:13.617Z,15.53
2023-04-18T12:23:13.623Z,15.46
2023-04-18T12:24:13.897Z,15.29
2023-04-18T12:25:13.595Z,15.27
2023-04-18T12:26:13.640Z,15.56
2023-04-18T12:27:13.575Z,15.27
2023-04-18T12:28:13.573Z,15.25
2023-04-18T12:29:13.937Z,15.20
2023-04-18T12:30:13.665Z,15.50
2023-04-18T12:31:13.534Z,15.57
2023-04-18T12:32:13.554Z,15.69
2023-04-18T12:33:13.518Z,15.54
2023-04-18T12:34:13.723Z,15.44
2023-04-18T12:35:13.491Z,15.59
2023-04-18T12:36:13.483Z,15.62
2023-04-18T12:37:13.439Z,15.56
2023-04-18T12:38:13.464Z,15.57
2023-04-18T12:39:13.431Z,15.51
2023-04-18T12:40:13.466Z,15.27
2023-04-18T12:41:13.431Z,15.13
2023-04-18T12:42:13.399Z,14.88
2023-04-18T12:43:13.399Z,14.70
2023-04-18T12:44:13.593Z,14.46
2023-04-18T12:45:13.390Z,14.43
2023-04-18T12:46:13.422Z,14.52
2023-04-18T12:47:13.348Z,14.65
2023-04-18T12:48:13.377Z,14.64
2023-04-18T12:49:13.340Z,14.58
2023-04-18T12:50:13.336Z,14.65
2023-04-18T12:51:13.369Z,14.68
2023-04-18T12:52:13.309Z,14.52
2023-04-18T12:53:13.272Z,14.45
2023-04-18T12:54:13.524Z,14.46
2023-04-18T12:55:13.282Z,14.40
2023-04-18T12:56:13.278Z,14.25
2023-04-18T12:57:13.248Z,14.20
2023-04-18T12:58:13.246Z,14.07
2023-04-18T12:59:13.533Z,14.15
2023-04-18T13:00:13.507Z,14.50
2023-04-18T13:01:13.214Z,14.69
2023-04-18T13:02:13.270Z,14.80
2023-04-18T13:03:13.589Z,14.78
2023-04-18T13:04:13.662Z,14.80
2023-04-18T13:05:13.159Z,14.73
2023-04-18T13:06:13.160Z,14.50
2023-04-18T13:07:13.120Z,14.35
2023-04-18T13:08:17.612Z,14.35
2023-04-18T13:09:13.404Z,14.45
2023-04-18T13:10:13.153Z,14.37